createdAt,value
2022-10-30T00:00:59.543Z,16.34
2022-10-30T00:03:02.910Z,15.86
2022-10-30T00:05:06.957Z,13.91
2022-10-30T00:07:09.681Z,15.60
2022-10-30T00:09:12.379Z,16.24
2022-10-30T00:11:15.393Z,16.23
2022-10-30T00:13:20.533Z,16.10
2022-10-30T00:15:23.247Z,15.43
2022-10-30T00:17:26.113Z,16.06
2022-10-30T00:19:28.819Z,16.06
2022-10-30T00:21:31.516Z,16.08
2022-10-30T00:23:34.287Z,15.96
2022-10-30T00:25:37.501Z,16.00
2022-10-30T00:27:40.258Z,16.02
2022-10-30T00:29:44.515Z,15.97
2022-10-30T00:31:47.435Z,14.55
2022-10-30T00:33:51.295Z,15.92
2022-10-30T00:35:54.067Z,14.33
2022-10-30T00:37:58.294Z,15.82
2022-10-30T00:40:01.237Z,15.09
2022-10-30T00:42:04.010Z,15.89
2022-10-30T00:44:36.678Z,15.83
2022-10-30T00:46:42.189Z,15.73
2022-10-30T00:48:47.056Z,13.98
2022-10-30T00:50:49.856Z,15.77
2022-10-30T00:52:57.305Z,15.71
2022-10-30T00:55:05.003Z,15.03
2022-10-30T00:57:10.079Z,15.71
2022-10-30T00:59:17.124Z,15.72
2022-10-30T01:01:28.218Z,15.68
2022-10-30T01:03:33.434Z,15.65
2022-10-30T01:05:37.283Z,14.88
2022-10-30T01:07:39.994Z,15.57
2022-10-30T01:09:43.376Z,15.35
2022-10-30T01:11:46.531Z,10.20
2022-10-30T01:13:51.437Z,15.16
2022-10-30T01:16:20.971Z,15.15
2022-10-30T01:18:42.276Z,13.84
2022-10-30T01:21:05.056Z,11.68
2022-10-30T01:23:15.144Z,15.23
2022-10-30T01:25:30.656Z,15.15
2022-10-30T01:27:47.584Z,14.36
2022-10-30T01:30:03.691Z,15.28
2022-10-30T01:32:23.456Z,15.37
2022-10-30T01:34:35.601Z,15.40
2022-10-30T01:36:43.748Z,12.28
2022-10-30T01:38:52.511Z,14.45
2022-10-30T01:40:55.317Z,15.47
2022-10-30T01:42:59.697Z,15.30
2022-10-30T01:45:07.242Z,15.36
2022-10-30T01:47:24.056Z,15.33
2022-10-30T01:49:43.644Z,14.66
2022-10-30T01:51:56.214Z,14.01
2022-10-30T01:54:08.201Z,15.24
2022-10-30T01:56:20.447Z,15.27
2022-10-30T01:58:28.946Z,14.81
2022-10-30T02:00:33.538Z,15.22
2022-10-30T02:02:36.692Z,15.28
2022-10-30T02:04:41.314Z,14.86
2022-10-30T02:06:44.393Z,15.16
2022-10-30T02:08:47.137Z,15.14
2022-10-30T02:10:53.947Z,15.04
2022-10-30T02:13:09.159Z,12.31
2022-10-30T02:15:12.741Z,8.14
2022-10-30T02:17:15.740Z,15.10
2022-10-30T02:19:18.838Z,15.13
2022-10-30T02:21:23.321Z,15.15
2022-10-30T02:23:26.504Z,15.15
2022-10-30T02:25:30.838Z,12.36
2022-10-30T02:27:34.286Z,14.94
2022-10-30T02:29:37.180Z,15.02
2022-10-30T02:31:41.922Z,14.98
2022-10-30T02:33:46.815Z,14.47
2022-10-30T02:35:49.549Z,14.91
2022-10-30T02:37:53.698Z,14.92
2022-10-30T02:39:56.449Z,14.91
2022-10-30T02:42:01.900Z,12.02
2022-10-30T02:44:05.276Z,14.96
2022-10-30T02:46:08.784Z,14.55
2022-10-30T02:48:12.412Z,14.43
2022-10-30T02:50:15.779Z,14.91
2022-10-30T02:52:18.642Z,13.75
2022-10-30T02:54:22.776Z,14.21
2022-10-30T02:56:25.782Z,12.07
2022-10-30T02:58:29.591Z,14.80
2022-10-30T03:00:32.658Z,14.75
2022-10-30T03:02:35.497Z,14.28
2022-10-30T03:04:38.343Z,14.77
2022-10-30T03:06:41.191Z,14.76
2022-10-30T03:08:45.239Z,14.79
2022-10-30T03:10:49.608Z,11.45
2022-10-30T03:12:52.414Z,14.67
2022-10-30T03:14:55.168Z,14.67
2022-10-30T03:16:57.990Z,14.63
2022-10-30T03:19:01.120Z,14.70
2022-10-30T03:21:06.961Z,14.38
2022-10-30T03:23:09.653Z,14.78
2022-10-30T03:25:12.351Z,14.69
2022-10-30T03:27:16.455Z,14.71
2022-10-30T03:29:19.270Z,13.87
2022-10-30T03:31:22.368Z,13.34
2022-10-30T03:33:39.100Z,14.58
2022-10-30T03:35:41.763Z,14.66
2022-10-30T03:37:44.407Z,12.87
2022-10-30T03:39:47.227Z,14.77
2022-10-30T03:41:49.900Z,14.69
2022-10-30T03:43:55.004Z,12.51
2022-10-30T03:45:58.528Z,13.93
2022-10-30T03:48:01.940Z,14.64
2022-10-30T03:50:05.186Z,14.69
2022-10-30T03:52:08.234Z,13.73
2022-10-30T03:54:11.131Z,14.78
2022-10-30T03:56:14.536Z,12.53
2022-10-30T03:58:23.911Z,13.80
2022-10-30T04:00:30.301Z,14.84
2022-10-30T04:02:34.544Z,14.86
2022-10-30T04:04:37.383Z,14.82
2022-10-30T04:06:40.121Z,14.81
2022-10-30T04:08:43.953Z,14.01
2022-10-30T04:10:48.251Z,14.74
2022-10-30T04:12:51.155Z,14.68
2022-10-30T04:14:54.236Z,14.63
2022-10-30T04:16:58.446Z,14.66
2022-10-30T04:19:01.540Z,14.66
2022-10-30T04:21:04.468Z,14.68
2022-10-30T04:23:13.469Z,14.67
2022-10-30T04:25:16.418Z,14.54
2022-10-30T04:27:19.919Z,14.52
2022-10-30T04:29:22.830Z,14.55
2022-10-30T04:31:25.681Z,14.45
2022-10-30T04:33:30.137Z,14.43
2022-10-30T04:35:37.837Z,14.48
2022-10-30T04:37:44.810Z,14.55
2022-10-30T04:39:49.378Z,14.44
2022-10-30T04:41:57.186Z,14.56
2022-10-30T04:44:07.395Z,14.63
2022-10-30T04:46:10.155Z,14.57
2022-10-30T04:48:14.851Z,14.64
2022-10-30T04:50:20.435Z,14.73
2022-10-30T04:52:23.262Z,14.73
2022-10-30T04:54:28.602Z,14.73
2022-10-30T04:56:32.902Z,14.69
2022-10-30T04:58:35.795Z,14.67
2022-10-30T05:00:41.313Z,12.49
2022-10-30T05:02:49.374Z,14.58
2022-10-30T05:04:52.110Z,14.64
2022-10-30T05:06:56.224Z,14.63
2022-10-30T05:08:58.980Z,14.55
2022-10-30T05:11:10.200Z,12.25
2022-10-30T05:13:13.247Z,14.64
2022-10-30T05:15:18.195Z,14.68
2022-10-30T05:17:21.556Z,14.67
2022-10-30T05:19:25.327Z,14.66
2022-10-30T05:21:31.095Z,14.28
2022-10-30T05:23:36.000Z,14.76
2022-10-30T05:25:39.345Z,14.73
2022-10-30T05:27:43.981Z,14.82
2022-10-30T05:29:47.946Z,14.84
2022-10-30T05:31:51.577Z,11.87
2022-10-30T05:34:12.078Z,14.77
2022-10-30T05:36:15.912Z,14.69
2022-10-30T05:38:19.324Z,14.68
2022-10-30T05:40:23.585Z,14.68
2022-10-30T05:42:26.691Z,14.61
2022-10-30T05:44:55.041Z,14.12
2022-10-30T05:46:57.351Z,14.52
2022-10-30T05:49:03.965Z,14.47
2022-10-30T05:51:08.536Z,14.32
2022-10-30T05:53:13.385Z,14.29
2022-10-30T05:55:16.540Z,13.51
2022-10-30T05:57:37.470Z,14.60
2022-10-30T05:59:40.158Z,14.87
2022-10-30T06:03:48.519Z,15.64
2022-10-30T06:05:52.251Z,16.18
2022-10-30T06:07:56.329Z,16.32
2022-10-30T06:09:59.045Z,16.75
2022-10-30T06:12:27.979Z,16.64
2022-10-30T06:15:04.970Z,16.65
2022-10-30T06:17:08.373Z,16.80
2022-10-30T06:19:25.882Z,17.04
2022-10-30T06:21:32.870Z,17.00
2022-10-30T06:23:59.987Z,17.27
2022-10-30T06:26:11.156Z,16.88
2022-10-30T06:28:25.433Z,16.39
2022-10-30T06:30:30.356Z,15.95
2022-10-30T06:32:33.173Z,15.45
2022-10-30T06:34:36.346Z,15.31
2022-10-30T06:36:39.359Z,15.17
2022-10-30T06:38:42.208Z,14.98
2022-10-30T06:40:46.010Z,14.89
2022-10-30T06:43:02.181Z,14.44
2022-10-30T06:45:13.004Z,14.77
2022-10-30T06:47:17.164Z,14.67
2022-10-30T06:49:19.981Z,14.68
2022-10-30T06:51:23.374Z,14.72
2022-10-30T06:53:28.769Z,13.78
2022-10-30T06:55:38.669Z,14.69
2022-10-30T06:58:00.076Z,14.75
2022-10-30T07:00:25.336Z,14.30
2022-10-30T07:02:56.518Z,14.79
2022-10-30T07:04:59.604Z,14.77
2022-10-30T07:07:02.466Z,14.81
2022-10-30T07:09:06.072Z,14.85
2022-10-30T07:11:09.528Z,13.51
2022-10-30T07:13:24.240Z,14.91
2022-10-30T07:15:45.917Z,14.86
2022-10-30T07:18:03.883Z,14.36
2022-10-30T07:20:11.307Z,14.85
2022-10-30T07:22:14.471Z,14.30
2022-10-30T07:24:20.827Z,13.62
2022-10-30T07:26:42.352Z,14.81
2022-10-30T07:29:18.450Z,14.85
2022-10-30T07:31:49.558Z,14.87
2022-10-30T07:34:26.277Z,13.45
2022-10-30T07:36:47.370Z,14.94
2022-10-30T07:39:10.590Z,14.97
2022-10-30T07:41:19.660Z,15.02
2022-10-30T07:43:25.937Z,15.04
2022-10-30T07:45:37.809Z,13.48
2022-10-30T07:48:03.709Z,15.13
2022-10-30T07:50:23.034Z,15.19
2022-10-30T07:52:26.070Z,15.21
2022-10-30T07:54:28.831Z,15.23
2022-10-30T07:56:35.009Z,15.33
2022-10-30T07:59:09.726Z,15.41
2022-10-30T08:01:30.852Z,15.52
2022-10-30T08:03:44.797Z,15.57
2022-10-30T08:06:06.555Z,15.56
2022-10-30T08:08:14.277Z,15.64
2022-10-30T08:10:17.311Z,15.70
2022-10-30T08:12:20.040Z,11.02
2022-10-30T08:14:22.961Z,15.80
2022-10-30T08:16:27.154Z,15.88
2022-10-30T08:18:29.991Z,15.98
2022-10-30T08:20:32.811Z,16.04
2022-10-30T08:22:44.450Z,14.68
2022-10-30T08:24:47.250Z,16.17
2022-10-30T08:26:52.763Z,14.29
2022-10-30T08:28:55.823Z,16.35
2022-10-30T08:31:02.460Z,16.50
2022-10-30T08:33:25.571Z,13.17
2022-10-30T08:36:01.461Z,16.73
2022-10-30T08:38:05.793Z,16.84
2022-10-30T08:40:10.845Z,16.90
2022-10-30T08:42:24.887Z,17.01
2022-10-30T08:44:30.471Z,17.19
2022-10-30T08:46:51.970Z,16.72
2022-10-30T08:48:55.971Z,17.44
2022-10-30T08:51:01.084Z,17.50
2022-10-30T08:53:13.286Z,17.58
2022-10-30T08:55:16.345Z,17.71
2022-10-30T08:57:19.189Z,17.83
2022-10-30T08:59:22.076Z,18.03
2022-10-30T09:01:27.254Z,18.11
2022-10-30T09:03:59.038Z,18.34
2022-10-30T09:06:31.636Z,18.19
2022-10-30T09:08:57.207Z,18.71
2022-10-30T09:11:17.550Z,18.87
2022-10-30T09:13:20.721Z,19.08
2022-10-30T09:15:24.557Z,18.18
2022-10-30T09:17:31.028Z,19.41
2022-10-30T09:19:33.849Z,19.59
2022-10-30T09:21:36.760Z,19.79
2022-10-30T09:23:41.095Z,19.97
2022-10-30T09:26:04.945Z,20.25
2022-10-30T09:28:19.149Z,20.39
2022-10-30T09:30:44.896Z,20.64
2022-10-30T09:32:57.110Z,20.86
2022-10-30T09:35:11.712Z,20.23
2022-10-30T09:37:16.108Z,20.99
2022-10-30T09:39:21.880Z,21.12
2022-10-30T09:41:41.132Z,21.34
2022-10-30T09:43:58.103Z,21.43
2022-10-30T09:46:16.874Z,21.56
2022-10-30T09:48:58.551Z,21.72
2022-10-30T09:51:14.670Z,21.93
2022-10-30T09:53:26.443Z,22.05
2022-10-30T09:55:35.616Z,22.20
2022-10-30T09:57:51.083Z,22.19
2022-10-30T10:00:03.920Z,22.63
2022-10-30T10:02:22.401Z,22.78
2022-10-30T10:04:32.894Z,22.94
2022-10-30T10:07:03.324Z,23.13
2022-10-30T10:09:22.171Z,23.04
2022-10-30T10:11:57.240Z,23.48
2022-10-30T10:14:08.518Z,23.66
2022-10-30T10:16:20.111Z,23.80
2022-10-30T10:18:28.038Z,23.87
2022-10-30T10:20:36.538Z,23.03
2022-10-30T10:22:44.084Z,23.89
2022-10-30T10:24:47.719Z,23.95
2022-10-30T10:26:55.844Z,24.12
2022-10-30T10:29:33.188Z,24.34
2022-10-30T10:31:45.148Z,24.41
2022-10-30T10:34:01.635Z,24.54
2022-10-30T10:36:13.443Z,24.75
2022-10-30T10:38:30.369Z,24.75
2022-10-30T10:40:50.282Z,24.87
2022-10-30T10:43:09.734Z,24.89
2022-10-30T10:45:26.199Z,24.67
2022-10-30T10:47:56.140Z,24.56
2022-10-30T10:50:15.514Z,24.64
2022-10-30T10:52:22.588Z,24.89
2022-10-30T10:54:30.246Z,25.09
2022-10-30T10:56:37.615Z,25.19
2022-10-30T10:58:49.683Z,25.04
2022-10-30T11:00:56.391Z,25.11
2022-10-30T11:03:06.379Z,25.46
2022-10-30T11:05:19.897Z,24.87
2022-10-30T11:07:24.806Z,25.35
2022-10-30T11:09:28.409Z,25.28
2022-10-30T11:11:31.276Z,25.23
2022-10-30T11:13:37.572Z,25.17
2022-10-30T11:15:54.495Z,25.28
2022-10-30T11:18:03.706Z,24.34
2022-10-30T11:20:19.599Z,25.38
2022-10-30T11:22:29.554Z,25.57
2022-10-30T11:24:33.921Z,24.29
2022-10-30T11:26:36.584Z,25.80
2022-10-30T11:28:49.433Z,25.77
2022-10-30T11:30:52.053Z,25.91
2022-10-30T11:32:57.096Z,26.13
2022-10-30T11:35:13.732Z,26.30
2022-10-30T11:37:31.313Z,26.28
2022-10-30T11:39:35.455Z,26.50
2022-10-30T11:41:39.115Z,26.41
2022-10-30T11:43:42.798Z,26.50
2022-10-30T11:45:45.636Z,26.24
2022-10-30T11:47:48.606Z,26.94
2022-10-30T11:49:55.051Z,27.22
2022-10-30T11:51:59.911Z,26.68
2022-10-30T11:54:03.207Z,26.51
2022-10-30T11:56:16.122Z,25.95
2022-10-30T11:58:28.051Z,26.63
2022-10-30T12:00:34.360Z,26.95
2022-10-30T12:02:42.441Z,27.44
2022-10-30T12:04:45.200Z,27.52
2022-10-30T12:06:47.944Z,27.53
2022-10-30T12:09:03.203Z,27.47
2022-10-30T12:11:07.648Z,27.15
2022-10-30T12:13:15.989Z,26.24
2022-10-30T12:15:22.381Z,26.99
2022-10-30T12:17:25.099Z,26.99
2022-10-30T12:19:27.896Z,27.04
2022-10-30T12:21:35.947Z,26.53
2022-10-30T12:23:40.197Z,26.09
2022-10-30T12:25:48.645Z,26.79
2022-10-30T12:27:59.270Z,26.91
2022-10-30T12:30:09.733Z,27.07
2022-10-30T12:32:18.552Z,27.48
2022-10-30T12:34:34.986Z,27.69
2022-10-30T12:36:46.573Z,27.14
2022-10-30T12:38:53.156Z,27.20
2022-10-30T12:41:09.848Z,27.34
2022-10-30T12:43:20.608Z,26.35
2022-10-30T12:45:29.323Z,27.01
2022-10-30T12:47:42.370Z,27.57
2022-10-30T12:49:51.465Z,28.06
2022-10-30T12:52:00.291Z,28.10
2022-10-30T12:54:09.456Z,28.13
2022-10-30T12:56:19.540Z,28.56
2022-10-30T12:58:29.020Z,28.00
2022-10-30T13:00:38.136Z,29.01
2022-10-30T13:02:50.983Z,28.89
2022-10-30T13:04:59.116Z,28.58
2022-10-30T13:07:11.994Z,28.87
2022-10-30T13:09:20.331Z,29.16
2022-10-30T13:11:33.888Z,28.52
2022-10-30T13:13:41.436Z,28.42
2022-10-30T13:15:48.361Z,28.40
2022-10-30T13:17:51.480Z,28.68
2022-10-30T13:19:54.215Z,28.68
2022-10-30T13:22:03.415Z,27.35
2022-10-30T13:24:12.049Z,28.23
2022-10-30T13:26:23.389Z,28.75
2022-10-30T13:28:34.340Z,28.85
2022-10-30T13:30:42.109Z,27.38
2022-10-30T13:33:00.589Z,28.46
2022-10-30T13:35:17.913Z,28.54
2022-10-30T13:37:28.365Z,28.28
2022-10-30T13:39:39.477Z,28.29
2022-10-30T13:41:59.442Z,28.90
2022-10-30T13:44:16.356Z,28.81
2022-10-30T13:46:31.336Z,28.62
2022-10-30T13:48:54.588Z,28.68
2022-10-30T13:51:17.509Z,29.04
2022-10-30T13:53:25.705Z,28.97
2022-10-30T13:55:31.004Z,28.81
2022-10-30T13:57:41.804Z,28.31
2022-10-30T13:59:54.328Z,28.55
2022-10-30T14:02:02.702Z,27.30
2022-10-30T14:04:11.633Z,28.56
2022-10-30T14:06:25.661Z,28.46
2022-10-30T14:08:37.045Z,28.30
2022-10-30T14:10:46.190Z,28.17
2022-10-30T14:12:54.075Z,28.22
2022-10-30T14:15:04.877Z,28.03
2022-10-30T14:17:15.797Z,27.86
2022-10-30T14:19:19.825Z,27.72
2022-10-30T14:21:45.059Z,27.76
2022-10-30T14:23:47.871Z,27.64
2022-10-30T14:26:14.381Z,27.40
2022-10-30T14:28:21.042Z,27.43
2022-10-30T14:30:28.775Z,27.01
2022-10-30T14:32:42.991Z,26.92
2022-10-30T14:35:00.229Z,27.28
2022-10-30T14:37:03.293Z,26.94
2022-10-30T14:39:30.903Z,26.93
2022-10-30T14:41:49.708Z,26.91
2022-10-30T14:44:27.875Z,26.67
2022-10-30T14:46:38.786Z,26.10
2022-10-30T14:48:53.414Z,26.30
2022-10-30T14:51:06.698Z,26.09
2022-10-30T14:53:35.223Z,25.85
2022-10-30T14:55:54.297Z,25.74
2022-10-30T14:58:18.425Z,25.70
2022-10-30T15:00:39.012Z,25.90
2022-10-30T15:02:53.224Z,25.98
2022-10-30T15:05:12.778Z,26.04
2022-10-30T15:07:23.478Z,26.01
2022-10-30T15:09:41.428Z,26.09
2022-10-30T15:12:19.178Z,25.88
2022-10-30T15:14:40.449Z,25.93
2022-10-30T15:16:52.569Z,25.77
2022-10-30T15:19:01.745Z,25.58
2022-10-30T15:21:07.315Z,25.32
2022-10-30T15:23:13.313Z,25.38
2022-10-30T15:25:19.798Z,25.33
2022-10-30T15:27:25.163Z,24.74
2022-10-30T15:29:31.379Z,25.23
2022-10-30T15:31:34.150Z,25.09
2022-10-30T15:33:38.009Z,24.95
2022-10-30T15:35:48.237Z,24.79
2022-10-30T15:38:01.079Z,24.68
2022-10-30T15:40:19.045Z,24.55
2022-10-30T15:42:22.584Z,24.39
2022-10-30T15:44:28.598Z,24.16
2022-10-30T15:46:32.265Z,24.16
2022-10-30T15:48:36.442Z,23.75
2022-10-30T15:50:45.989Z,23.99
2022-10-30T15:52:49.001Z,23.87
2022-10-30T15:54:57.099Z,22.46
2022-10-30T15:57:36.569Z,23.38
2022-10-30T15:59:25.862Z,23.30
2022-10-30T16:01:32.142Z,23.18
2022-10-30T16:03:34.986Z,22.69
2022-10-30T16:05:37.689Z,23.04
2022-10-30T16:07:47.141Z,23.00
2022-10-30T16:09:54.722Z,22.64
2022-10-30T16:12:00.723Z,21.20
2022-10-30T16:14:08.791Z,20.88
2022-10-30T16:18:26.979Z,22.18
2022-10-30T16:20:29.980Z,22.14
2022-10-30T16:22:37.893Z,21.94
2022-10-30T16:24:42.411Z,21.94
2022-10-30T16:26:45.646Z,21.87
2022-10-30T16:28:48.838Z,21.83
2022-10-30T16:30:52.051Z,16.18
2022-10-30T16:32:55.412Z,21.73
2022-10-30T16:34:59.962Z,21.16
2022-10-30T16:37:04.227Z,21.44
2022-10-30T16:39:07.056Z,21.33
2022-10-30T16:41:13.431Z,21.23
2022-10-30T16:43:26.584Z,18.70
2022-10-30T16:45:49.858Z,20.91
2022-10-30T16:47:58.277Z,20.50
2022-10-30T16:50:01.168Z,20.79
2022-10-30T16:52:07.164Z,20.72
2022-10-30T16:54:24.262Z,20.08
2022-10-30T16:56:30.891Z,20.51
2022-10-30T16:58:33.853Z,20.40
2022-10-30T17:00:37.261Z,20.39
2022-10-30T17:02:48.457Z,20.35
2022-10-30T17:04:57.193Z,20.24
2022-10-30T17:07:16.712Z,20.11
2022-10-30T17:09:24.924Z,20.05
2022-10-30T17:11:41.979Z,19.65
2022-10-30T17:13:59.872Z,19.96
2022-10-30T17:16:21.776Z,19.88
2022-10-30T17:18:32.654Z,18.05
2022-10-30T17:20:35.463Z,19.56
2022-10-30T17:22:39.390Z,19.58
2022-10-30T17:24:42.228Z,19.36
2022-10-30T17:26:56.289Z,18.45
2022-10-30T17:28:59.127Z,19.16
2022-10-30T17:31:21.108Z,19.27
2022-10-30T17:33:35.144Z,19.32
2022-10-30T17:35:38.032Z,18.86
2022-10-30T17:37:40.765Z,19.37
2022-10-30T17:39:43.521Z,19.42
2022-10-30T17:41:47.758Z,19.46
2022-10-30T17:43:52.708Z,19.44
2022-10-30T17:45:55.810Z,19.30
2022-10-30T17:47:58.988Z,19.19
2022-10-30T17:50:03.126Z,18.99
2022-10-30T17:52:05.951Z,17.32
2022-10-30T17:54:13.846Z,18.78
2022-10-30T17:56:18.778Z,18.73
2022-10-30T17:58:23.181Z,18.67
2022-10-30T18:00:25.984Z,18.29
2022-10-30T18:02:28.972Z,18.57
2022-10-30T18:04:31.758Z,18.15
2022-10-30T18:06:34.550Z,18.15
2022-10-30T18:08:37.461Z,15.51
2022-10-30T18:10:40.221Z,17.86
2022-10-30T18:12:44.647Z,17.88
2022-10-30T18:14:48.692Z,18.00
2022-10-30T18:16:53.019Z,18.08
2022-10-30T18:18:58.744Z,18.17
2022-10-30T18:21:01.403Z,18.36
2022-10-30T18:23:04.816Z,17.98
2022-10-30T18:25:16.346Z,18.39
2022-10-30T18:27:18.987Z,18.22
2022-10-30T18:29:21.724Z,17.97
2022-10-30T18:31:25.756Z,17.99
2022-10-30T18:33:28.582Z,17.90
2022-10-30T18:35:33.767Z,17.33
2022-10-30T18:37:36.384Z,17.82
2022-10-30T18:39:39.032Z,16.18
2022-10-30T18:41:43.562Z,17.91
2022-10-30T18:43:47.242Z,16.54
2022-10-30T18:45:50.251Z,17.97
2022-10-30T18:47:55.912Z,18.01
2022-10-30T18:49:58.762Z,17.98
2022-10-30T18:52:01.493Z,16.53
2022-10-30T18:54:04.503Z,17.97
2022-10-30T18:56:10.588Z,17.79
2022-10-30T18:58:13.286Z,17.52
2022-10-30T19:00:18.590Z,17.67
2022-10-30T19:02:24.165Z,17.86
2022-10-30T19:04:28.377Z,17.88
2022-10-30T19:06:32.840Z,17.73
2022-10-30T19:08:35.612Z,17.58
2022-10-30T19:10:40.339Z,17.50
2022-10-30T19:13:04.088Z,17.60
2022-10-30T19:15:15.448Z,17.74
2022-10-30T19:17:18.116Z,16.84
2022-10-30T19:19:20.779Z,15.51
2022-10-30T19:21:27.848Z,17.72
2022-10-30T19:23:30.785Z,16.98
2022-10-30T19:25:35.310Z,17.14
2022-10-30T19:27:38.025Z,17.48
2022-10-30T19:29:40.766Z,17.52
2022-10-30T19:31:44.043Z,17.53
2022-10-30T19:33:51.330Z,17.51
2022-10-30T19:36:00.920Z,17.17
2022-10-30T19:38:07.994Z,17.57
2022-10-30T19:40:19.426Z,17.64
2022-10-30T19:42:22.116Z,16.16
2022-10-30T19:44:24.930Z,16.89
2022-10-30T19:46:27.581Z,17.75
2022-10-30T19:48:56.116Z,17.68
2022-10-30T19:50:52.973Z,17.67
2022-10-30T19:52:57.947Z,17.64
2022-10-30T19:55:02.190Z,17.56
2022-10-30T19:57:06.511Z,17.49
2022-10-30T19:59:10.941Z,17.40
2022-10-30T20:01:14.349Z,17.30
2022-10-30T20:03:18.783Z,16.89
2022-10-30T20:05:23.882Z,17.26
2022-10-30T20:07:26.542Z,16.81
2022-10-30T20:09:31.807Z,17.23
2022-10-30T20:11:35.900Z,17.14
2022-10-30T20:13:38.692Z,17.08
2022-10-30T20:15:41.406Z,16.68
2022-10-30T20:17:44.663Z,16.92
2022-10-30T20:19:47.292Z,15.85
2022-10-30T20:21:49.938Z,16.88
2022-10-30T20:23:52.652Z,16.81
2022-10-30T20:25:58.983Z,16.78
2022-10-30T20:28:06.891Z,16.80
2022-10-30T20:30:15.677Z,16.72
2022-10-30T20:32:18.558Z,16.73
2022-10-30T20:34:21.273Z,16.68
2022-10-30T20:36:24.000Z,16.24
2022-10-30T20:38:29.109Z,16.67
2022-10-30T20:40:32.446Z,16.59
2022-10-30T20:42:37.304Z,16.58
2022-10-30T20:44:41.559Z,16.63
2022-10-30T20:46:44.212Z,16.54
2022-10-30T20:48:47.235Z,16.45
2022-10-30T20:50:52.706Z,16.45
2022-10-30T20:52:56.327Z,16.45
2022-10-30T20:54:59.107Z,16.43
2022-10-30T20:57:01.791Z,16.32
2022-10-30T20:59:04.468Z,16.40
2022-10-30T21:01:08.702Z,16.45
2022-10-30T21:03:14.456Z,16.34
2022-10-30T21:05:42.275Z,16.27
2022-10-30T21:07:40.065Z,16.23
2022-10-30T21:09:42.858Z,15.52
2022-10-30T21:11:45.715Z,16.20
2022-10-30T21:13:48.399Z,16.10
2022-10-30T21:15:51.468Z,15.93
2022-10-30T21:17:55.676Z,15.96
2022-10-30T21:19:58.469Z,15.04
2022-10-30T21:22:01.093Z,15.91
2022-10-30T21:24:03.807Z,15.93
2022-10-30T21:26:10.979Z,15.88
2022-10-30T21:28:13.828Z,15.80
2022-10-30T21:30:16.522Z,15.79
2022-10-30T21:32:19.239Z,15.73
2022-10-30T21:34:23.278Z,15.20
2022-10-30T21:36:26.040Z,13.06
2022-10-30T21:38:28.743Z,15.51
2022-10-30T21:40:31.474Z,15.33
2022-10-30T21:42:34.349Z,15.34
2022-10-30T21:44:37.031Z,15.33
2022-10-30T21:46:39.718Z,15.32
2022-10-30T21:48:42.596Z,15.31
2022-10-30T21:50:46.696Z,15.26
2022-10-30T21:52:49.356Z,15.19
2022-10-30T21:54:52.121Z,15.24
2022-10-30T21:56:54.759Z,14.33
2022-10-30T21:58:59.311Z,15.16
2022-10-30T22:01:02.138Z,15.03
2022-10-30T22:03:04.918Z,14.98
2022-10-30T22:05:08.213Z,14.96
2022-10-30T22:07:12.252Z,13.19
2022-10-30T22:09:16.702Z,14.78
2022-10-30T22:11:22.059Z,13.28
2022-10-30T22:13:24.706Z,14.69
2022-10-30T22:15:27.339Z,14.71
2022-10-30T22:17:32.368Z,14.48
2022-10-30T22:19:37.555Z,13.84
2022-10-30T22:21:40.245Z,13.61
2022-10-30T22:23:44.799Z,14.68
2022-10-30T22:25:55.099Z,14.66
2022-10-30T22:27:58.085Z,13.05
2022-10-30T22:30:01.215Z,14.33
2022-10-30T22:32:04.008Z,12.35
2022-10-30T22:34:06.692Z,14.16
2022-10-30T22:36:14.657Z,14.35
2022-10-30T22:38:17.341Z,13.28
2022-10-30T22:40:21.390Z,14.47
2022-10-30T22:42:24.106Z,14.07
2022-10-30T22:44:28.509Z,14.51
2022-10-30T22:46:31.964Z,14.50
2022-10-30T22:48:34.824Z,14.39
2022-10-30T22:50:39.170Z,14.33
2022-10-30T22:52:41.844Z,14.32
2022-10-30T22:54:44.540Z,14.35
2022-10-30T22:56:48.566Z,14.17
2022-10-30T22:58:52.899Z,14.35
2022-10-30T23:00:55.676Z,14.29
2022-10-30T23:02:58.761Z,13.87
2022-10-30T23:05:01.854Z,13.23
2022-10-30T23:07:04.608Z,14.06
2022-10-30T23:09:09.373Z,14.11
2022-10-30T23:11:12.669Z,14.06
2022-10-30T23:13:16.788Z,13.82
2022-10-30T23:15:19.772Z,13.84
2022-10-30T23:17:22.453Z,13.77
2022-10-30T23:19:26.776Z,13.81
2022-10-30T23:21:32.472Z,11.41
2022-10-30T23:23:35.907Z,13.41
2022-10-30T23:25:39.437Z,12.03
2022-10-30T23:27:42.106Z,13.39
2022-10-30T23:29:46.227Z,12.36
2022-10-30T23:31:48.941Z,13.47
2022-10-30T23:33:53.135Z,13.53
2022-10-30T23:36:00.225Z,13.50
2022-10-30T23:38:02.893Z,13.47
2022-10-30T23:40:06.301Z,13.44
2022-10-30T23:42:08.934Z,13.40
2022-10-30T23:44:14.425Z,13.39
2022-10-30T23:46:18.387Z,8.90
2022-10-30T23:48:21.026Z,13.37
2022-10-30T23:50:24.025Z,13.28
2022-10-30T23:52:26.679Z,13.25
2022-10-30T23:54:29.334Z,13.27
2022-10-30T23:56:31.995Z,13.23
2022-10-30T23:58:34.646Z,13.22
